Time;durP1;ratioP1;P1;durP2;ratioP2;P2;SDS_P1;SDS_P2;PMS_P1;PMS_P2;Temp;Humidity;BMP_temperature;BMP_pressure;BME280_temperature;BME280_humidity;BME280_pressure;Samples;Min_cycle;Max_cycle;Signal;HPM_P1;HPM_P2
2022/08/04 00:02:18;;;;;;;3.20;0.95;;;17.30;99.90;;;;;;5005604;28;20023;-81
2022/08/04 00:04:50;;;;;;;6.00;1.55;;;17.30;99.90;;;;;;5005550;28;20025;-80
2022/08/04 00:07:26;;;;;;;2.95;1.33;;;17.40;99.90;;;;;;5004577;28;20054;-80
2022/08/04 00:10:03;;;;;;;3.58;1.30;;;17.40;99.90;;;;;;5004409;28;20030;-81
2022/08/04 00:12:36;;;;;;;1.83;0.73;;;17.40;99.90;;;;;;5004187;28;20060;-81
2022/08/04 00:15:08;;;;;;;2.30;1.30;;;17.40;99.90;;;;;;5005223;28;20033;-81
2022/08/04 00:17:44;;;;;;;3.33;1.27;;;17.40;99.90;;;;;;5004387;28;20097;-81
2022/08/04 00:20:18;;;;;;;1.75;1.10;;;17.40;99.90;;;;;;5004500;28;20084;-82
2022/08/04 00:22:48;;;;;;;2.20;0.93;;;17.40;99.90;;;;;;5004892;28;20383;-79
2022/08/04 00:25:16;;;;;;;3.25;1.40;;;17.40;99.90;;;;;;5004173;28;20034;-79
2022/08/04 00:27:43;;;;;;;3.25;0.90;;;17.40;99.90;;;;;;5005564;28;20455;-79
2022/08/04 00:30:11;;;;;;;6.03;1.13;;;17.40;99.90;;;;;;5005806;28;20475;-79
2022/08/04 00:32:41;;;;;;;2.15;1.50;;;17.50;99.90;;;;;;5003721;28;20113;-79
2022/08/04 00:35:15;;;;;;;1.83;0.68;;;17.50;99.90;;;;;;5004708;28;20021;-79
2022/08/04 00:37:45;;;;;;;3.95;1.45;;;17.50;99.90;;;;;;5004566;28;20114;-78
2022/08/04 00:40:16;;;;;;;3.17;1.17;;;17.50;99.90;;;;;;5003924;28;20053;-79
2022/08/04 00:42:58;;;;;;;8.60;1.02;;;17.50;99.90;;;;;;5004094;28;20097;-76
2022/08/04 00:45:44;;;;;;;3.55;1.00;;;17.50;99.90;;;;;;5005824;28;20394;-79
2022/08/04 00:48:36;;;;;;;4.13;1.33;;;17.50;99.90;;;;;;5009159;28;20391;-78
2022/08/04 00:51:41;;;;;;;3.17;1.25;;;17.60;99.90;;;;;;4998937;28;20046;-79
2022/08/04 00:54:45;;;;;;;4.43;0.90;;;17.60;99.90;;;;;;5009381;28;20144;-82
2022/08/04 00:57:46;;;;;;;2.78;1.35;;;17.70;99.90;;;;;;5004907;28;20018;-79
2022/08/04 01:00:16;;;;;;;2.50;0.95;;;17.70;99.90;;;;;;5005339;28;20037;-82
2022/08/04 01:03:01;;;;;;;1.92;1.05;;;17.70;99.90;;;;;;5002171;28;20023;-79
2022/08/04 01:05:47;;;;;;;2.60;1.10;;;17.70;99.90;;;;;;5007261;28;20022;-78
2022/08/04 01:08:50;;;;;;;5.03;1.33;;;17.70;99.90;;;;;;5009268;28;20084;-81
2022/08/04 01:11:49;;;;;;;4.10;1.30;;;17.70;99.90;;;;;;5003675;28;20050;-80
2022/08/04 01:14:42;;;;;;;2.70;0.90;;;17.70;99.90;;;;;;5002174;28;20029;-79
2022/08/04 01:17:32;;;;;;;3.17;0.90;;;17.70;99.90;;;;;;5004868;28;20094;-80
2022/08/04 01:20:02;;;;;;;4.28;1.33;;;17.60;99.90;;;;;;5005186;28;20037;-78
2022/08/04 01:22:45;;;;;;;2.75;1.30;;;17.70;99.90;;;;;;5010691;28;20022;-79
2022/08/04 01:25:31;;;;;;;2.90;1.40;;;17.70;99.90;;;;;;5009901;28;20076;-78
2022/08/04 01:28:23;;;;;;;3.80;1.23;;;17.70;99.90;;;;;;5009167;28;20421;-79
2022/08/04 01:30:56;;;;;;;3.20;1.02;;;17.70;99.90;;;;;;5009127;28;20045;-79
2022/08/04 01:33:29;;;;;;;5.03;1.50;;;17.70;99.90;;;;;;5008121;28;20026;-79
2022/08/04 01:36:02;;;;;;;2.40;0.88;;;17.80;99.90;;;;;;5022680;28;20102;-79
2022/08/04 01:38:40;;;;;;;3.05;1.15;;;17.70;99.90;;;;;;5024240;28;20036;-79
2022/08/04 01:41:12;;;;;;;2.72;1.13;;;17.70;99.90;;;;;;5009583;28;20418;-79
2022/08/04 01:43:43;;;;;;;4.28;1.27;;;17.80;99.90;;;;;;5008192;28;20029;-78
2022/08/04 01:46:16;;;;;;;2.47;1.20;;;17.70;99.90;;;;;;4997850;28;20064;-78
2022/08/04 01:48:53;;;;;;;2.65;1.23;;;17.80;99.90;;;;;;4997145;28;20025;-78
2022/08/04 01:51:23;;;;;;;3.17;1.33;;;17.80;99.90;;;;;;4997081;28;20148;-76
2022/08/04 01:53:51;;;;;;;5.50;1.58;;;17.80;99.90;;;;;;4997536;28;20026;-76
2022/08/04 01:56:20;;;;;;;2.30;0.90;;;17.80;99.90;;;;;;4999657;28;20026;-78
2022/08/04 01:58:48;;;;;;;2.35;1.08;;;17.80;99.90;;;;;;5004656;28;20010;-76
2022/08/04 02:01:16;;;;;;;5.03;1.40;;;17.80;99.90;;;;;;5002529;28;20030;-78
2022/08/04 02:03:45;;;;;;;1.92;1.00;;;17.90;99.90;;;;;;5003808;28;20022;-79
2022/08/04 02:06:40;;;;;;;3.10;1.17;;;17.90;99.90;;;;;;5004596;28;20029;-79
2022/08/04 02:09:26;;;;;;;3.20;1.15;;;17.90;99.90;;;;;;5004033;28;20024;-78
2022/08/04 02:12:19;;;;;;;3.45;0.95;;;17.80;99.90;;;;;;5004386;28;20033;-79
2022/08/04 02:15:03;;;;;;;5.78;0.98;;;17.90;99.90;;;;;;5004075;28;20069;-78
2022/08/04 02:17:52;;;;;;;3.95;1.17;;;17.80;99.90;;;;;;5003967;28;20170;-78
2022/08/04 02:20:34;;;;;;;3.22;0.90;;;17.80;99.90;;;;;;5002819;28;20057;-77
2022/08/04 02:23:13;;;;;;;4.97;1.08;;;17.80;99.90;;;;;;5003276;28;20015;-78
2022/08/04 02:25:52;;;;;;;2.63;0.82;;;17.80;99.90;;;;;;5002989;28;20025;-77
2022/08/04 02:28:39;;;;;;;3.03;1.15;;;17.80;99.90;;;;;;5002884;28;20065;-79
2022/08/04 02:31:17;;;;;;;3.30;1.00;;;17.80;99.90;;;;;;5003786;28;20023;-79
2022/08/04 02:34:07;;;;;;;3.42;1.48;;;17.80;99.90;;;;;;5003650;28;20449;-78
2022/08/04 02:36:38;;;;;;;5.70;0.98;;;17.70;99.90;;;;;;5004058;28;20026;-78
2022/08/04 02:39:10;;;;;;;2.00;1.05;;;17.70;99.90;;;;;;5003407;28;20037;-78
2022/08/04 02:41:39;;;;;;;2.88;1.25;;;17.70;99.90;;;;;;5002863;28;20014;-78
2022/08/04 02:44:09;;;;;;;2.65;1.23;;;17.70;99.90;;;;;;5000484;28;20117;-78
2022/08/04 02:46:39;;;;;;;3.72;0.95;;;17.70;99.90;;;;;;5002911;28;20443;-78
2022/08/04 02:49:09;;;;;;;2.08;0.93;;;17.70;99.90;;;;;;5001725;28;20022;-77
2022/08/04 02:51:42;;;;;;;2.67;1.08;;;17.70;99.90;;;;;;5003008;28;20106;-78
2022/08/04 02:54:10;;;;;;;1.73;0.90;;;17.70;99.90;;;;;;5001740;28;20025;-79
2022/08/04 02:56:39;;;;;;;1.77;0.50;;;17.80;99.90;;;;;;5001761;28;20026;-78
2022/08/04 02:59:10;;;;;;;2.25;1.02;;;17.80;99.90;;;;;;5001339;28;20538;-79
2022/08/04 03:01:39;;;;;;;2.70;1.25;;;17.80;99.90;;;;;;5002981;28;20379;-78
2022/08/04 03:04:23;;;;;;;5.22;1.00;;;17.80;99.90;;;;;;5001588;28;20015;-79
2022/08/04 03:07:17;;;;;;;3.42;0.85;;;17.90;99.90;;;;;;5001440;28;20050;-78
2022/08/04 03:10:21;;;;;;;1.90;0.90;;;17.90;99.90;;;;;;5003351;28;20026;-79
2022/08/04 03:13:10;;;;;;;2.75;1.35;;;17.90;99.90;;;;;;5003527;28;20029;-77
2022/08/04 03:15:54;;;;;;;1.73;1.20;;;18.00;99.90;;;;;;5002545;28;20041;-79
2022/08/04 03:19:00;;;;;;;4.93;1.35;;;18.00;99.90;;;;;;5002605;28;20031;-78
2022/08/04 03:21:40;;;;;;;2.95;1.38;;;18.00;99.90;;;;;;4999609;28;20209;-78
2022/08/04 03:24:14;;;;;;;3.72;1.00;;;18.00;99.90;;;;;;4998759;28;20022;-79
2022/08/04 03:26:41;;;;;;;2.30;1.10;;;18.00;99.90;;;;;;5009929;28;20018;-80
2022/08/04 03:29:45;;;;;;;3.83;1.02;;;18.00;99.90;;;;;;5013096;28;20038;-78
2022/08/04 03:32:13;;;;;;;2.00;1.33;;;17.90;99.90;;;;;;5000254;28;20018;-79
2022/08/04 03:35:06;;;;;;;4.65;1.60;;;17.90;99.90;;;;;;5005869;28;20026;-79
2022/08/04 03:38:10;;;;;;;1.92;1.15;;;17.90;99.90;;;;;;5005908;28;20025;-80
2022/08/04 03:40:46;;;;;;;4.88;1.17;;;17.90;99.90;;;;;;5005042;28;20030;-78
2022/08/04 03:43:50;;;;;;;4.22;1.13;;;17.90;99.90;;;;;;5003513;28;20068;-79
2022/08/04 03:46:36;;;;;;;1.15;0.82;;;17.90;99.90;;;;;;5003943;28;20080;-78
2022/08/04 03:49:21;;;;;;;;;;;17.90;99.90;;;;;;5005949;28;20058;-77
2022/08/04 03:55:04;;;;;;;2.33;0.90;;;17.90;99.90;;;;;;5005250;28;20448;-78
2022/08/04 03:58:08;;;;;;;1.17;1.00;;;17.90;99.90;;;;;;5004732;28;20493;-77
2022/08/04 04:00:41;;;;;;;3.78;0.82;;;17.90;99.90;;;;;;5006444;28;20025;-78
2022/08/04 04:03:43;;;;;;;2.28;0.80;;;17.90;99.90;;;;;;5006204;28;20022;-77
2022/08/04 04:06:29;;;;;;;2.03;0.95;;;17.90;99.90;;;;;;5006754;28;20057;-77
2022/08/04 04:09:15;;;;;;;1.92;0.93;;;18.00;99.90;;;;;;5005248;28;20026;-76
2022/08/04 04:12:30;;;;;;;3.55;1.13;;;18.00;99.90;;;;;;5003877;28;20510;-77
2022/08/04 04:15:34;;;;;;;1.83;0.95;;;18.00;99.90;;;;;;5001329;28;20565;-78
2022/08/04 04:18:26;;;;;;;4.00;1.27;;;18.00;99.90;;;;;;5004943;28;20101;-78
2022/08/04 04:21:23;;;;;;;2.33;1.23;;;18.00;99.90;;;;;;5006140;28;20088;-77
2022/08/04 04:24:03;;;;;;;1.75;1.05;;;18.00;99.90;;;;;;5006049;28;20018;-77
2022/08/04 04:26:55;;;;;;;4.20;0.90;;;18.00;99.90;;;;;;5006109;28;20490;-76
2022/08/04 04:30:02;;;;;;;3.90;0.85;;;18.00;99.90;;;;;;5003515;28;20030;-79
2022/08/04 04:32:50;;;;;;;1.92;0.95;;;18.00;99.90;;;;;;5005751;28;20407;-77
2022/08/04 04:35:27;;;;;;;1.67;0.70;;;18.10;99.90;;;;;;5003439;28;20026;-77
2022/08/04 04:38:16;;;;;;;1.65;0.98;;;18.10;99.90;;;;;;5004046;28;20018;-78
2022/08/04 04:40:46;;;;;;;2.90;1.25;;;18.00;99.90;;;;;;5003838;28;20031;-77
2022/08/04 04:43:20;;;;;;;2.85;1.13;;;18.00;99.90;;;;;;5002154;28;20024;-79
2022/08/04 04:46:00;;;;;;;2.55;0.80;;;18.00;99.90;;;;;;5006073;28;20056;-77
2022/08/04 04:48:43;;;;;;;2.60;1.00;;;18.00;99.90;;;;;;5005420;28;20069;-75
2022/08/04 04:51:17;;;;;;;2.22;0.98;;;18.00;99.90;;;;;;5002969;28;20108;-79
2022/08/04 04:54:19;;;;;;;2.20;1.15;;;18.00;99.90;;;;;;5005589;28;20030;-76
2022/08/04 04:57:29;;;;;;;3.55;1.23;;;18.00;99.90;;;;;;4961685;28;20102;-81
2022/08/04 05:00:01;;;;;;;2.78;0.88;;;18.00;99.90;;;;;;5002424;28;20049;-80
2022/08/04 05:03:01;;;;;;;1.80;0.93;;;17.90;99.90;;;;;;5005211;28;20022;-78
2022/08/04 05:05:28;;;;;;;1.10;0.70;;;18.00;99.90;;;;;;5003737;28;20022;-79
2022/08/04 05:08:14;;;;;;;1.48;1.02;;;18.00;99.90;;;;;;5005051;28;20025;-80
2022/08/04 05:10:46;;;;;;;1.92;0.80;;;18.00;99.90;;;;;;5003696;28;20109;-80
2022/08/04 05:13:23;;;;;;;4.82;0.95;;;17.90;99.90;;;;;;5002103;28;20030;-77
2022/08/04 05:15:55;;;;;;;1.25;0.90;;;18.00;99.90;;;;;;5003308;28;20071;-80
2022/08/04 05:18:26;;;;;;;2.08;0.95;;;17.90;99.90;;;;;;5001640;28;20057;-81
2022/08/04 05:21:13;;;;;;;1.00;0.70;;;17.90;99.90;;;;;;5002951;28;20038;-79
2022/08/04 05:23:48;;;;;;;1.58;1.10;;;17.90;99.90;;;;;;5003047;28;20023;-82
2022/08/04 05:26:18;;;;;;;4.60;0.80;;;17.90;99.90;;;;;;5003613;28;20036;-81
2022/08/04 05:28:59;;;;;;;1.98;1.08;;;17.90;99.90;;;;;;5012648;28;20478;-82
2022/08/04 05:31:35;;;;;;;1.60;1.08;;;17.90;99.90;;;;;;5014132;28;20060;-79
2022/08/04 05:34:19;;;;;;;2.65;1.25;;;17.90;99.90;;;;;;5014483;28;20018;-80
2022/08/04 05:36:53;;;;;;;4.15;0.98;;;17.90;99.90;;;;;;5013973;28;20018;-80
2022/08/04 05:39:30;;;;;;;3.13;1.27;;;17.90;99.90;;;;;;5014320;28;20030;-79
2022/08/04 05:42:00;;;;;;;8.70;1.00;;;17.90;99.90;;;;;;5006728;28;20014;-80
2022/08/04 05:44:28;;;;;;;4.50;1.40;;;17.90;99.90;;;;;;5004298;28;20100;-80
2022/08/04 05:46:58;;;;;;;4.28;1.27;;;17.90;99.90;;;;;;5002822;28;20022;-78
2022/08/04 05:49:27;;;;;;;2.50;1.30;;;17.80;99.90;;;;;;5003556;28;20426;-80
2022/08/04 05:52:01;;;;;;;1.38;0.82;;;17.80;99.90;;;;;;5002248;28;20026;-79
2022/08/04 05:54:33;;;;;;;2.22;1.15;;;17.80;99.90;;;;;;5000002;28;20475;-78
2022/08/04 05:57:03;;;;;;;1.98;1.08;;;17.80;99.90;;;;;;4994256;28;20026;-79
2022/08/04 05:59:32;;;;;;;2.40;1.40;;;17.80;99.90;;;;;;4992005;28;20027;-77
2022/08/04 06:02:01;;;;;;;1.67;1.20;;;17.70;99.90;;;;;;4991969;28;20019;-79
2022/08/04 06:04:38;;;;;;;1.80;1.23;;;17.70;99.90;;;;;;5007403;28;20026;-80
2022/08/04 06:07:07;;;;;;;2.05;1.40;;;17.70;99.90;;;;;;5012285;28;20022;-80
2022/08/04 06:09:35;;;;;;;3.70;1.38;;;17.70;99.90;;;;;;5012161;28;20109;-80
2022/08/04 06:12:08;;;;;;;2.65;1.30;;;17.70;99.90;;;;;;5012091;28;20073;-80
2022/08/04 06:14:43;;;;;;;2.05;1.38;;;17.70;99.90;;;;;;5010719;28;20430;-80
2022/08/04 06:17:14;;;;;;;5.10;1.35;;;17.80;99.90;;;;;;5011935;28;20540;-80
2022/08/04 06:19:42;;;;;;;5.50;1.55;;;17.80;99.90;;;;;;5011771;28;20033;-80
2022/08/04 06:22:12;;;;;;;2.97;1.48;;;17.80;99.90;;;;;;5011922;28;20029;-80
2022/08/04 06:24:41;;;;;;;2.28;1.48;;;17.80;99.90;;;;;;5012437;28;20021;-80
2022/08/04 06:27:09;;;;;;;3.33;1.92;;;17.80;99.90;;;;;;5012309;28;20026;-80
2022/08/04 06:29:41;;;;;;;4.25;1.60;;;17.80;99.90;;;;;;5013344;28;20049;-80
2022/08/04 06:32:35;;;;;;;4.55;1.60;;;17.80;99.90;;;;;;5013550;28;20026;-80
2022/08/04 06:35:03;;;;;;;3.38;1.52;;;17.70;99.90;;;;;;5013578;28;20057;-80
2022/08/04 06:37:32;;;;;;;4.00;1.45;;;17.70;99.90;;;;;;5013642;28;20026;-80
2022/08/04 06:40:02;;;;;;;5.18;1.67;;;17.70;99.90;;;;;;5013339;28;20125;-79
2022/08/04 06:42:30;;;;;;;3.20;1.50;;;17.70;99.90;;;;;;5013546;28;20018;-79
2022/08/04 06:45:01;;;;;;;2.33;1.63;;;17.60;99.90;;;;;;5013589;28;20479;-80
2022/08/04 06:47:29;;;;;;;2.47;1.15;;;17.60;99.90;;;;;;5013249;28;20049;-79
2022/08/04 06:49:58;;;;;;;2.25;1.60;;;17.50;99.90;;;;;;5012999;28;20030;-78
2022/08/04 06:52:26;;;;;;;3.05;1.50;;;17.60;99.90;;;;;;5008180;28;20514;-79
2022/08/04 06:54:54;;;;;;;3.97;1.50;;;17.50;99.90;;;;;;5010190;28;20386;-78
2022/08/04 06:57:32;;;;;;;4.18;1.38;;;17.40;99.90;;;;;;5010235;28;20033;-77
2022/08/04 07:00:10;;;;;;;8.82;1.88;;;17.30;99.90;;;;;;5010230;28;20061;-78
2022/08/04 07:02:50;;;;;;;4.82;1.80;;;17.20;99.90;;;;;;5002967;28;20075;-78
2022/08/04 07:05:20;;;;;;;7.63;1.92;;;17.00;99.90;;;;;;5006498;28;20107;-78
2022/08/04 07:07:48;;;;;;;2.95;1.88;;;16.80;99.90;;;;;;5006037;28;20021;-80
2022/08/04 07:10:17;;;;;;;6.03;1.80;;;16.70;99.90;;;;;;5011053;28;20026;-80
2022/08/04 07:12:46;;;;;;;3.05;1.73;;;16.60;99.90;;;;;;5017283;28;20045;-80
2022/08/04 07:15:16;;;;;;;4.90;2.05;;;16.60;99.90;;;;;;5015951;28;20080;-79
2022/08/04 07:17:46;;;;;;;4.03;1.90;;;16.50;99.90;;;;;;5017013;28;20438;-78
2022/08/04 07:20:13;;;;;;;6.28;2.25;;;16.40;99.90;;;;;;5015618;28;20026;-78
2022/08/04 07:22:42;;;;;;;6.97;2.28;;;16.40;99.90;;;;;;5016389;28;20022;-79
2022/08/04 07:25:11;;;;;;;3.75;1.85;;;16.30;99.90;;;;;;5006790;28;20033;-79
2022/08/04 07:27:39;;;;;;;5.85;2.20;;;16.20;99.90;;;;;;5003263;28;20030;-78
2022/08/04 07:30:08;;;;;;;3.83;1.88;;;16.20;99.90;;;;;;4999466;28;20029;-79
2022/08/04 07:32:40;;;;;;;2.83;2.13;;;16.10;99.90;;;;;;4996540;28;20034;-79
2022/08/04 07:35:09;;;;;;;2.42;1.75;;;16.10;99.90;;;;;;4999656;28;20093;-78
2022/08/04 07:37:37;;;;;;;3.67;1.88;;;16.10;99.90;;;;;;4996049;28;20522;-78
2022/08/04 07:40:06;;;;;;;10.05;1.80;;;16.00;99.90;;;;;;4996570;28;20125;-78
2022/08/04 07:42:34;;;;;;;2.63;1.98;;;16.00;99.90;;;;;;4996145;28;20018;-79
2022/08/04 07:45:02;;;;;;;2.85;1.90;;;15.90;99.90;;;;;;5000604;28;20026;-80
2022/08/04 07:47:30;;;;;;;3.20;2.15;;;15.90;99.90;;;;;;4997756;28;20019;-78
2022/08/04 07:49:57;;;;;;;3.42;2.10;;;15.90;99.90;;;;;;5000436;28;20030;-78
2022/08/04 07:52:27;;;;;;;4.68;2.38;;;15.90;99.90;;;;;;5016030;28;20030;-79
2022/08/04 07:54:59;;;;;;;2.20;2.00;;;15.80;99.90;;;;;;5011924;28;20057;-79
2022/08/04 07:57:26;;;;;;;4.53;2.30;;;15.80;99.90;;;;;;5016012;28;20398;-79
2022/08/04 07:59:54;;;;;;;4.20;2.40;;;15.80;99.90;;;;;;5014396;28;20030;-79
2022/08/04 08:02:22;;;;;;;2.85;2.13;;;15.80;99.90;;;;;;5014148;28;20072;-78
2022/08/04 08:04:51;;;;;;;7.10;2.65;;;15.80;99.90;;;;;;5015138;28;20044;-78
2022/08/04 08:07:21;;;;;;;6.68;2.15;;;15.80;99.90;;;;;;5011998;28;20382;-79
2022/08/04 08:09:49;;;;;;;5.68;2.53;;;15.80;99.90;;;;;;5013871;28;20075;-77
2022/08/04 08:12:17;;;;;;;5.00;2.72;;;15.80;99.90;;;;;;5014716;28;20095;-78
2022/08/04 08:14:46;;;;;;;4.32;1.83;;;15.80;99.90;;;;;;5014467;28;20584;-77
2022/08/04 08:17:16;;;;;;;3.92;2.47;;;15.80;99.90;;;;;;5015158;28;20041;-77
2022/08/04 08:19:44;;;;;;;5.97;2.78;;;15.80;99.90;;;;;;5008046;28;20037;-78
2022/08/04 08:22:12;;;;;;;5.65;2.25;;;15.70;99.90;;;;;;5014690;28;20487;-78
2022/08/04 08:24:40;;;;;;;3.20;2.03;;;15.80;99.90;;;;;;5014768;28;20026;-79
2022/08/04 08:27:08;;;;;;;3.00;2.25;;;15.70;99.90;;;;;;5007738;28;20022;-78
2022/08/04 08:29:37;;;;;;;4.55;1.80;;;15.70;99.90;;;;;;5000534;28;20037;-78
2022/08/04 08:32:08;;;;;;;5.68;1.77;;;15.70;99.90;;;;;;5000094;28;20021;-78
2022/08/04 08:34:38;;;;;;;4.57;2.38;;;15.70;99.90;;;;;;5007311;28;20042;-78
2022/08/04 08:37:34;;;;;;;3.10;1.90;;;15.60;99.90;;;;;;5008582;28;20478;-77
2022/08/04 08:40:23;;;;;;;3.10;1.63;;;15.60;99.90;;;;;;5009120;28;20483;-78
2022/08/04 08:43:13;;;;;;;3.30;1.73;;;15.60;99.90;;;;;;5000869;28;20515;-78
2022/08/04 08:46:05;;;;;;;3.80;1.90;;;15.60;99.90;;;;;;4995908;28;20022;-78
2022/08/04 08:49:05;;;;;;;4.50;1.73;;;15.60;99.90;;;;;;4996721;28;20052;-78
2022/08/04 08:51:52;;;;;;;2.35;1.73;;;15.60;99.90;;;;;;4993539;28;20046;-78
2022/08/04 08:54:51;;;;;;;3.70;1.65;;;15.50;99.90;;;;;;4994551;28;20105;-77
2022/08/04 08:57:33;;;;;;;2.58;1.27;;;15.50;99.90;;;;;;5005661;28;20030;-77
2022/08/04 09:00:32;;;;;;;1.98;1.33;;;15.50;99.90;;;;;;4997558;28;20066;-77
2022/08/04 09:03:46;;;;;;;4.30;1.73;;;15.50;99.90;;;;;;4994726;28;20088;-78
2022/08/04 09:06:57;;;;;;;3.55;1.50;;;15.50;99.90;;;;;;4986061;28;20035;-78
2022/08/04 09:09:39;;;;;;;1.70;1.23;;;15.50;99.90;;;;;;4994172;28;20022;-78
2022/08/04 09:12:23;;;;;;;2.05;1.17;;;15.40;99.90;;;;;;5000907;28;20084;-78
2022/08/04 09:15:12;;;;;;;1.23;0.90;;;15.40;99.90;;;;;;4995839;28;20031;-78
2022/08/04 09:18:00;;;;;;;1.30;0.90;;;15.40;99.90;;;;;;4998415;28;20022;-77
2022/08/04 09:20:39;;;;;;;2.38;1.10;;;15.30;99.90;;;;;;5002466;28;20046;-76
2022/08/04 09:23:07;;;;;;;2.00;1.00;;;15.30;99.90;;;;;;4993981;28;20025;-76
2022/08/04 09:25:56;;;;;;;2.13;0.90;;;15.20;99.90;;;;;;4993914;28;20497;-76
2022/08/04 09:28:28;;;;;;;0.95;0.80;;;15.20;99.90;;;;;;4994655;28;20026;-76
2022/08/04 09:31:18;;;;;;;2.03;0.70;;;15.20;99.90;;;;;;4993594;28;20102;-74
2022/08/04 09:34:32;;;;;;;2.17;0.95;;;15.20;99.90;;;;;;4993463;28;20026;-78
2022/08/04 09:37:12;;;;;;;0.93;0.80;;;15.10;99.90;;;;;;4952206;29;20055;-76
2022/08/04 09:40:02;;;;;;;1.10;0.90;;;15.10;99.90;;;;;;4952291;29;20027;-76
2022/08/04 09:42:33;;;;;;;1.45;0.90;;;15.10;99.90;;;;;;4984073;28;20062;-77
2022/08/04 09:45:26;;;;;;;6.43;1.00;;;15.10;99.90;;;;;;5008204;28;20018;-76
2022/08/04 09:48:05;;;;;;;1.63;0.93;;;15.10;99.90;;;;;;4994346;28;20049;-76
2022/08/04 09:50:37;;;;;;;1.63;1.00;;;15.00;99.90;;;;;;4993381;28;20019;-77
2022/08/04 09:53:17;;;;;;;1.52;1.13;;;15.00;99.90;;;;;;4993281;28;20014;-76
2022/08/04 09:56:08;;;;;;;2.38;1.05;;;15.00;99.90;;;;;;4995047;28;20036;-76
2022/08/04 09:59:05;;;;;;;2.00;1.00;;;15.00;99.90;;;;;;5011490;28;20026;-76
2022/08/04 10:01:34;;;;;;;1.00;0.80;;;15.00;99.90;;;;;;4995255;28;20060;-78
2022/08/04 10:04:08;;;;;;;1.00;0.85;;;15.00;99.90;;;;;;4995889;28;20042;-77
2022/08/04 10:06:58;;;;;;;1.98;0.90;;;15.00;99.90;;;;;;4995916;28;20390;-75
2022/08/04 10:09:33;;;;;;;4.45;0.77;;;15.00;99.90;;;;;;4997666;28;20542;-75
2022/08/04 10:12:46;;;;;;;0.82;0.65;;;14.90;99.90;;;;;;5004929;28;20042;-75
2022/08/04 10:15:30;;;;;;;4.60;1.08;;;15.00;99.90;;;;;;4986607;28;20046;-75
2022/08/04 10:18:35;;;;;;;1.35;0.90;;;14.90;99.90;;;;;;4997196;28;20060;-76
2022/08/04 10:21:24;;;;;;;1.42;0.80;;;14.90;99.90;;;;;;5008977;28;20041;-75
2022/08/04 10:24:28;;;;;;;0.75;0.60;;;14.90;99.90;;;;;;5012144;28;20022;-75
2022/08/04 10:27:19;;;;;;;0.93;0.80;;;14.90;99.90;;;;;;5011454;28;20022;-75
2022/08/04 10:29:48;;;;;;;1.17;0.93;;;14.90;99.90;;;;;;5006071;28;20482;-75
2022/08/04 10:32:32;;;;;;;0.90;0.60;;;14.90;99.90;;;;;;5006136;28;20062;-75
2022/08/04 10:35:13;;;;;;;4.35;1.00;;;14.80;99.90;;;;;;5004129;28;20041;-75
2022/08/04 10:38:06;;;;;;;1.10;0.70;;;14.80;99.90;;;;;;5003315;28;20501;-75
2022/08/04 10:40:58;;;;;;;1.08;0.65;;;14.80;99.90;;;;;;5006109;28;20121;-75
2022/08/04 10:44:04;;;;;;;1.05;0.73;;;14.80;99.90;;;;;;5012183;28;20033;-75
2022/08/04 10:47:05;;;;;;;0.82;0.75;;;14.80;99.90;;;;;;5013321;28;20025;-75
2022/08/04 10:49:55;;;;;;;0.80;0.60;;;14.80;99.90;;;;;;5011567;28;20046;-76
2022/08/04 10:52:54;;;;;;;0.65;0.40;;;14.80;99.90;;;;;;5013418;28;20018;-76
2022/08/04 10:55:42;;;;;;;1.50;0.50;;;14.80;99.90;;;;;;5010669;28;20033;-75
2022/08/04 10:58:19;;;;;;;0.50;0.40;;;14.80;99.90;;;;;;5013415;28;20014;-75
2022/08/04 11:00:48;;;;;;;0.90;0.40;;;14.80;99.90;;;;;;5012116;28;20136;-75
2022/08/04 11:03:21;;;;;;;0.93;0.57;;;14.80;99.90;;;;;;5013272;28;20026;-76
2022/08/04 11:05:50;;;;;;;1.23;0.70;;;14.80;99.90;;;;;;5013392;28;20037;-76
2022/08/04 11:08:38;;;;;;;0.50;0.47;;;14.80;99.90;;;;;;5013259;28;20045;-75
2022/08/04 11:11:20;;;;;;;5.22;0.70;;;14.80;99.90;;;;;;5013098;28;20046;-75
2022/08/04 11:14:00;;;;;;;0.90;0.60;;;14.80;99.90;;;;;;5007164;28;20023;-76
2022/08/04 11:16:50;;;;;;;0.50;0.50;;;14.90;99.90;;;;;;5003308;28;20050;-77
2022/08/04 11:19:24;;;;;;;0.57;0.40;;;14.80;99.90;;;;;;5001757;28;20105;-76
2022/08/04 11:22:09;;;;;;;0.73;0.50;;;14.90;99.90;;;;;;4999157;28;20037;-75
2022/08/04 11:24:52;;;;;;;0.68;0.40;;;14.90;99.90;;;;;;4993736;28;20471;-75
2022/08/04 11:27:39;;;;;;;0.60;0.45;;;14.90;99.90;;;;;;4993662;28;20105;-75
2022/08/04 11:30:12;;;;;;;0.70;0.50;;;14.90;99.90;;;;;;4991961;28;20039;-77
2022/08/04 11:33:20;;;;;;;0.90;0.50;;;14.90;99.90;;;;;;4992231;28;20038;-75
2022/08/04 11:35:56;;;;;;;0.50;0.47;;;14.90;99.90;;;;;;4993538;28;20038;-76
2022/08/04 11:39:17;;;;;;;0.60;0.40;;;14.90;99.90;;;;;;4993317;28;20025;-76
2022/08/04 11:42:01;;;;;;;1.38;0.50;;;14.90;99.90;;;;;;4952748;29;20043;-75
2022/08/04 11:44:43;;;;;;;0.90;0.40;;;14.90;99.90;;;;;;4992429;28;20038;-75
2022/08/04 11:47:40;;;;;;;0.57;0.40;;;14.90;99.90;;;;;;5003543;28;20018;-75
2022/08/04 11:50:37;;;;;;;0.85;0.32;;;14.90;99.90;;;;;;5006691;28;20030;-76
2022/08/04 11:53:14;;;;;;;0.50;0.40;;;15.00;99.90;;;;;;5006898;28;20010;-76
2022/08/04 11:55:43;;;;;;;1.00;0.52;;;14.90;99.90;;;;;;5006347;28;20050;-75
2022/08/04 11:58:11;;;;;;;0.75;0.47;;;14.90;99.90;;;;;;5004919;28;20022;-76
2022/08/04 12:01:05;;;;;;;0.80;0.50;;;14.90;99.90;;;;;;5005874;28;20026;-75
2022/08/04 12:03:59;;;;;;;0.57;0.40;;;14.90;99.90;;;;;;4997779;28;20475;-76
2022/08/04 12:06:30;;;;;;;0.50;0.50;;;14.90;99.90;;;;;;5006842;28;20482;-76
2022/08/04 12:09:25;;;;;;;1.17;0.70;;;14.90;99.90;;;;;;5005941;28;20030;-75
2022/08/04 12:12:03;;;;;;;3.20;0.55;;;14.90;99.90;;;;;;5005535;28;20045;-76
2022/08/04 12:14:59;;;;;;;2.38;0.70;;;14.90;99.90;;;;;;5013862;28;20037;-76
2022/08/04 12:17:51;;;;;;;0.80;0.50;;;14.90;99.90;;;;;;4997788;28;20030;-76
2022/08/04 12:20:26;;;;;;;2.17;0.65;;;14.90;99.90;;;;;;4996424;28;20093;-76
2022/08/04 12:22:58;;;;;;;0.68;0.50;;;14.90;99.90;;;;;;4996254;28;20011;-76
2022/08/04 12:25:38;;;;;;;1.05;0.50;;;14.90;99.90;;;;;;4998430;28;20088;-76
2022/08/04 12:28:17;;;;;;;0.82;0.45;;;15.00;99.90;;;;;;5003488;28;20045;-76
2022/08/04 12:30:57;;;;;;;1.00;0.47;;;14.90;99.90;;;;;;5008743;28;20217;-76
2022/08/04 12:33:48;;;;;;;0.40;0.32;;;15.00;99.90;;;;;;4997476;28;20024;-76
2022/08/04 12:36:28;;;;;;;0.55;0.50;;;15.00;99.90;;;;;;5003021;28;20054;-75
2022/08/04 12:39:18;;;;;;;1.23;0.65;;;15.00;99.90;;;;;;4995998;28;20388;-73
2022/08/04 12:41:52;;;;;;;0.63;0.28;;;15.00;99.90;;;;;;5000404;28;20053;-74
2022/08/04 12:44:20;;;;;;;0.90;0.45;;;15.00;99.90;;;;;;5008507;28;20022;-75
2022/08/04 12:46:49;;;;;;;0.82;0.40;;;15.00;99.90;;;;;;4996256;28;20018;-74
2022/08/04 12:49:18;;;;;;;1.10;0.50;;;15.10;99.90;;;;;;4996032;28;20029;-75
2022/08/04 12:51:47;;;;;;;0.40;0.30;;;15.10;99.90;;;;;;5003361;28;20033;-76
2022/08/04 12:54:25;;;;;;;0.70;0.40;;;15.10;99.90;;;;;;4996708;28;20027;-75
2022/08/04 12:56:59;;;;;;;0.85;0.43;;;15.10;99.90;;;;;;5002887;28;20018;-76
2022/08/04 12:59:36;;;;;;;0.47;0.40;;;15.10;99.90;;;;;;4996889;28;20128;-75
2022/08/04 13:02:06;;;;;;;1.50;0.40;;;15.10;99.90;;;;;;4994871;28;20053;-76
2022/08/04 13:04:38;;;;;;;0.82;0.50;;;15.10;99.90;;;;;;4995410;28;20018;-75
2022/08/04 13:07:14;;;;;;;0.70;0.20;;;15.10;99.90;;;;;;4994402;28;20081;-75
2022/08/04 13:09:42;;;;;;;0.43;0.30;;;15.10;99.90;;;;;;4995078;28;20026;-75
2022/08/04 13:12:16;;;;;;;0.60;0.45;;;15.10;99.90;;;;;;5003426;28;20067;-75
2022/08/04 13:14:47;;;;;;;0.98;0.50;;;15.10;99.90;;;;;;4997866;28;20018;-76
2022/08/04 13:17:15;;;;;;;0.75;0.40;;;15.10;99.90;;;;;;4999072;28;20033;-76
2022/08/04 13:19:51;;;;;;;0.30;0.30;;;15.10;99.90;;;;;;4994864;28;20069;-74
2022/08/04 13:22:29;;;;;;;1.65;0.30;;;15.20;99.90;;;;;;5005652;28;20027;-75
2022/08/04 13:24:59;;;;;;;0.45;0.30;;;15.20;99.90;;;;;;5009195;28;20022;-75
2022/08/04 13:27:28;;;;;;;1.63;0.73;;;15.20;99.90;;;;;;5002328;28;20033;-75
2022/08/04 13:29:57;;;;;;;2.05;0.40;;;15.20;99.90;;;;;;4995209;28;20022;-75
2022/08/04 13:32:26;;;;;;;0.40;0.40;;;15.20;99.90;;;;;;4994196;28;20050;-75
2022/08/04 13:34:56;;;;;;;0.57;0.50;;;15.20;99.90;;;;;;4998044;28;20105;-75
2022/08/04 13:37:30;;;;;;;0.20;0.20;;;15.20;99.90;;;;;;4996173;28;20027;-75
2022/08/04 13:39:59;;;;;;;0.68;0.35;;;15.20;99.90;;;;;;4996881;28;20022;-75
2022/08/04 13:42:28;;;;;;;0.50;0.30;;;15.20;99.90;;;;;;5004796;28;20018;-75
2022/08/04 13:44:59;;;;;;;1.85;0.52;;;15.20;99.90;;;;;;4994816;28;20069;-75
2022/08/04 13:47:33;;;;;;;0.75;0.40;;;15.30;99.90;;;;;;5004760;28;20011;-75
2022/08/04 13:50:26;;;;;;;1.27;0.30;;;15.30;99.90;;;;;;4993820;28;20018;-75
2022/08/04 13:52:57;;;;;;;0.40;0.32;;;15.30;99.90;;;;;;5004644;28;20046;-75
2022/08/04 13:55:35;;;;;;;0.20;0.20;;;15.30;99.90;;;;;;4997451;28;20025;-75